sensor_id;sensor_type;location;lat;lon;timestamp;P1;durP1;ratioP1;P2;durP2;ratioP2
49900;SDS011;35789;48.414;12.768;2024-02-28T00:00:00;17.6;;;9.6;;
49900;SDS011;35789;48.414;12.768;2024-02-28T00:05:00;17.6;;;9.6;;
49900;SDS011;35789;48.414;12.768;2024-02-28T00:10:00;17.6;;;9.6;;
49900;SDS011;35789;48.414;12.768;2024-02-28T00:20:00;17.6;;;9.6;;
49900;SDS011;35789;48.414;12.768;2024-02-28T00:25:00;17.6;;;9.6;;
49900;SDS011;35789;48.414;12.768;2024-02-28T00:30:00;20.7;;;10.5;;
49900;SDS011;35789;48.414;12.768;2024-02-28T00:35:00;20.7;;;10.5;;
49900;SDS011;35789;48.414;12.768;2024-02-28T00:40:00;20.7;;;10.5;;
49900;SDS011;35789;48.414;12.768;2024-02-28T00:45:00;20.7;;;10.5;;
49900;SDS011;35789;48.414;12.768;2024-02-28T00:50:00;20.7;;;10.5;;
49900;SDS011;35789;48.414;12.768;2024-02-28T00:55:00;20.7;;;10.5;;
49900;SDS011;35789;48.414;12.768;2024-02-28T01:00:00;18.9;;;10.6;;
49900;SDS011;35789;48.414;12.768;2024-02-28T01:05:00;18.9;;;10.6;;
49900;SDS011;35789;48.414;12.768;2024-02-28T01:10:00;18.9;;;10.6;;
49900;SDS011;35789;48.414;12.768;2024-02-28T01:15:00;18.9;;;10.6;;
49900;SDS011;35789;48.414;12.768;2024-02-28T01:20:00;18.9;;;10.6;;
49900;SDS011;35789;48.414;12.768;2024-02-28T01:25:00;18.9;;;10.6;;
49900;SDS011;35789;48.414;12.768;2024-02-28T01:30:00;17.6;;;10.0;;
49900;SDS011;35789;48.414;12.768;2024-02-28T01:35:01;17.6;;;10.0;;
49900;SDS011;35789;48.414;12.768;2024-02-28T01:40:00;17.6;;;10.0;;
49900;SDS011;35789;48.414;12.768;2024-02-28T01:45:00;17.6;;;10.0;;
49900;SDS011;35789;48.414;12.768;2024-02-28T01:50:00;17.6;;;10.0;;
49900;SDS011;35789;48.414;12.768;2024-02-28T01:55:00;17.6;;;10.0;;
49900;SDS011;35789;48.414;12.768;2024-02-28T02:00:00;19.4;;;10.3;;
49900;SDS011;35789;48.414;12.768;2024-02-28T02:05:00;19.4;;;10.3;;
49900;SDS011;35789;48.414;12.768;2024-02-28T02:10:00;19.4;;;10.3;;
49900;SDS011;35789;48.414;12.768;2024-02-28T02:15:00;19.4;;;10.3;;
49900;SDS011;35789;48.414;12.768;2024-02-28T02:20:00;19.4;;;10.3;;
49900;SDS011;35789;48.414;12.768;2024-02-28T02:25:02;19.4;;;10.3;;
49900;SDS011;35789;48.414;12.768;2024-02-28T02:30:00;21.8;;;11.2;;
49900;SDS011;35789;48.414;12.768;2024-02-28T02:35:00;21.8;;;11.2;;
49900;SDS011;35789;48.414;12.768;2024-02-28T02:40:00;21.8;;;11.2;;
49900;SDS011;35789;48.414;12.768;2024-02-28T02:45:00;21.8;;;11.2;;
49900;SDS011;35789;48.414;12.768;2024-02-28T02:50:00;21.8;;;11.2;;
49900;SDS011;35789;48.414;12.768;2024-02-28T02:55:00;21.8;;;11.2;;
49900;SDS011;35789;48.414;12.768;2024-02-28T03:00:00;20.5;;;11.2;;
49900;SDS011;35789;48.414;12.768;2024-02-28T03:05:00;20.5;;;11.2;;
49900;SDS011;35789;48.414;12.768;2024-02-28T03:10:00;20.5;;;11.2;;
49900;SDS011;35789;48.414;12.768;2024-02-28T03:15:00;20.5;;;11.2;;
49900;SDS011;35789;48.414;12.768;2024-02-28T03:20:00;20.5;;;11.2;;
49900;SDS011;35789;48.414;12.768;2024-02-28T03:25:00;20.5;;;11.2;;
49900;SDS011;35789;48.414;12.768;2024-02-28T03:30:00;19.0;;;10.3;;
49900;SDS011;35789;48.414;12.768;2024-02-28T03:35:00;19.0;;;10.3;;
49900;SDS011;35789;48.414;12.768;2024-02-28T03:40:00;19.0;;;10.3;;
49900;SDS011;35789;48.414;12.768;2024-02-28T03:45:00;19.0;;;10.3;;
49900;SDS011;35789;48.414;12.768;2024-02-28T03:50:00;19.0;;;10.3;;
49900;SDS011;35789;48.414;12.768;2024-02-28T03:55:00;19.0;;;10.3;;
49900;SDS011;35789;48.414;12.768;2024-02-28T04:00:00;23.9;;;12.1;;
49900;SDS011;35789;48.414;12.768;2024-02-28T04:05:00;23.9;;;12.1;;
49900;SDS011;35789;48.414;12.768;2024-02-28T04:10:00;23.9;;;12.1;;
49900;SDS011;35789;48.414;12.768;2024-02-28T04:15:00;23.9;;;12.1;;
49900;SDS011;35789;48.414;12.768;2024-02-28T04:20:00;23.9;;;12.1;;
49900;SDS011;35789;48.414;12.768;2024-02-28T04:25:00;23.9;;;12.1;;
49900;SDS011;35789;48.414;12.768;2024-02-28T04:30:00;20.6;;;11.1;;
49900;SDS011;35789;48.414;12.768;2024-02-28T04:35:00;20.6;;;11.1;;
49900;SDS011;35789;48.414;12.768;2024-02-28T04:40:00;20.6;;;11.1;;
49900;SDS011;35789;48.414;12.768;2024-02-28T04:45:00;20.6;;;11.1;;
49900;SDS011;35789;48.414;12.768;2024-02-28T04:50:00;20.6;;;11.1;;
49900;SDS011;35789;48.414;12.768;2024-02-28T04:55:01;20.6;;;11.1;;
49900;SDS011;35789;48.414;12.768;2024-02-28T05:00:00;23.2;;;12.8;;
49900;SDS011;35789;48.414;12.768;2024-02-28T05:05:00;23.2;;;12.8;;
49900;SDS011;35789;48.414;12.768;2024-02-28T05:10:00;23.2;;;12.8;;
49900;SDS011;35789;48.414;12.768;2024-02-28T05:15:00;23.2;;;12.8;;
49900;SDS011;35789;48.414;12.768;2024-02-28T05:20:00;23.2;;;12.8;;
49900;SDS011;35789;48.414;12.768;2024-02-28T05:25:00;23.2;;;12.8;;
49900;SDS011;35789;48.414;12.768;2024-02-28T05:30:01;22.8;;;12.7;;
49900;SDS011;35789;48.414;12.768;2024-02-28T05:35:00;22.8;;;12.7;;
49900;SDS011;35789;48.414;12.768;2024-02-28T05:40:00;22.8;;;12.7;;
49900;SDS011;35789;48.414;12.768;2024-02-28T05:45:00;22.8;;;12.7;;
49900;SDS011;35789;48.414;12.768;2024-02-28T05:50:00;22.8;;;12.7;;
49900;SDS011;35789;48.414;12.768;2024-02-28T05:55:00;22.8;;;12.7;;
49900;SDS011;35789;48.414;12.768;2024-02-28T06:00:00;31.9;;;16.1;;
49900;SDS011;35789;48.414;12.768;2024-02-28T06:05:00;31.9;;;16.1;;
49900;SDS011;35789;48.414;12.768;2024-02-28T06:10:00;31.9;;;16.1;;
49900;SDS011;35789;48.414;12.768;2024-02-28T06:15:00;31.9;;;16.1;;
49900;SDS011;35789;48.414;12.768;2024-02-28T06:20:00;31.9;;;16.1;;
49900;SDS011;35789;48.414;12.768;2024-02-28T06:25:00;31.9;;;16.1;;
49900;SDS011;35789;48.414;12.768;2024-02-28T06:30:00;36.8;;;18.8;;
49900;SDS011;35789;48.414;12.768;2024-02-28T06:35:00;36.8;;;18.8;;
49900;SDS011;35789;48.414;12.768;2024-02-28T06:40:00;36.8;;;18.8;;
49900;SDS011;35789;48.414;12.768;2024-02-28T06:45:00;36.8;;;18.8;;
49900;SDS011;35789;48.414;12.768;2024-02-28T06:50:00;36.8;;;18.8;;
49900;SDS011;35789;48.414;12.768;2024-02-28T06:55:00;36.8;;;18.8;;
49900;SDS011;35789;48.414;12.768;2024-02-28T07:00:00;37.6;;;17.4;;
49900;SDS011;35789;48.414;12.768;2024-02-28T07:05:00;37.6;;;17.4;;
49900;SDS011;35789;48.414;12.768;2024-02-28T07:10:02;37.6;;;17.4;;
49900;SDS011;35789;48.414;12.768;2024-02-28T07:15:00;37.6;;;17.4;;
49900;SDS011;35789;48.414;12.768;2024-02-28T07:20:00;37.6;;;17.4;;
49900;SDS011;35789;48.414;12.768;2024-02-28T07:25:00;37.6;;;17.4;;
49900;SDS011;35789;48.414;12.768;2024-02-28T07:30:01;44.8;;;22.7;;
49900;SDS011;35789;48.414;12.768;2024-02-28T07:35:00;44.8;;;22.7;;
49900;SDS011;35789;48.414;12.768;2024-02-28T07:40:00;44.8;;;22.7;;
49900;SDS011;35789;48.414;12.768;2024-02-28T07:45:00;44.8;;;22.7;;
49900;SDS011;35789;48.414;12.768;2024-02-28T07:50:00;44.8;;;22.7;;
49900;SDS011;35789;48.414;12.768;2024-02-28T07:55:00;44.8;;;22.7;;
49900;SDS011;35789;48.414;12.768;2024-02-28T08:00:00;43.4;;;23.2;;
49900;SDS011;35789;48.414;12.768;2024-02-28T08:05:00;43.4;;;23.2;;
49900;SDS011;35789;48.414;12.768;2024-02-28T08:10:00;43.4;;;23.2;;
49900;SDS011;35789;48.414;12.768;2024-02-28T08:15:00;43.4;;;23.2;;
49900;SDS011;35789;48.414;12.768;2024-02-28T08:20:00;43.4;;;23.2;;
49900;SDS011;35789;48.414;12.768;2024-02-28T08:25:00;43.4;;;23.2;;
49900;SDS011;35789;48.414;12.768;2024-02-28T08:30:00;45.0;;;23.9;;
49900;SDS011;35789;48.414;12.768;2024-02-28T08:35:00;45.0;;;23.9;;
49900;SDS011;35789;48.414;12.768;2024-02-28T08:40:00;45.0;;;23.9;;
49900;SDS011;35789;48.414;12.768;2024-02-28T08:45:00;45.0;;;23.9;;
49900;SDS011;35789;48.414;12.768;2024-02-28T08:50:00;45.0;;;23.9;;
49900;SDS011;35789;48.414;12.768;2024-02-28T08:55:00;45.0;;;23.9;;
49900;SDS011;35789;48.414;12.768;2024-02-28T09:00:00;47.9;;;24.4;;
49900;SDS011;35789;48.414;12.768;2024-02-28T09:05:00;47.9;;;24.4;;
49900;SDS011;35789;48.414;12.768;2024-02-28T09:10:00;47.9;;;24.4;;
49900;SDS011;35789;48.414;12.768;2024-02-28T09:15:00;47.9;;;24.4;;
49900;SDS011;35789;48.414;12.768;2024-02-28T09:20:00;47.9;;;24.4;;
49900;SDS011;35789;48.414;12.768;2024-02-28T09:25:00;47.9;;;24.4;;
49900;SDS011;35789;48.414;12.768;2024-02-28T09:30:00;49.9;;;24.9;;
49900;SDS011;35789;48.414;12.768;2024-02-28T09:35:00;49.9;;;24.9;;
49900;SDS011;35789;48.414;12.768;2024-02-28T09:40:00;49.9;;;24.9;;
49900;SDS011;35789;48.414;12.768;2024-02-28T09:45:00;49.9;;;24.9;;
49900;SDS011;35789;48.414;12.768;2024-02-28T09:50:01;49.9;;;24.9;;
49900;SDS011;35789;48.414;12.768;2024-02-28T09:55:00;49.9;;;24.9;;
49900;SDS011;35789;48.414;12.768;2024-02-28T10:00:00;47.6;;;24.6;;
49900;SDS011;35789;48.414;12.768;2024-02-28T10:05:01;47.6;;;24.6;;
49900;SDS011;35789;48.414;12.768;2024-02-28T10:10:00;47.6;;;24.6;;
49900;SDS011;35789;48.414;12.768;2024-02-28T10:15:00;47.6;;;24.6;;
49900;SDS011;35789;48.414;12.768;2024-02-28T10:20:01;47.6;;;24.6;;
49900;SDS011;35789;48.414;12.768;2024-02-28T10:25:00;47.6;;;24.6;;
49900;SDS011;35789;48.414;12.768;2024-02-28T10:30:00;44.8;;;24.3;;
49900;SDS011;35789;48.414;12.768;2024-02-28T10:35:00;44.8;;;24.3;;
49900;SDS011;35789;48.414;12.768;2024-02-28T10:40:00;44.8;;;24.3;;
49900;SDS011;35789;48.414;12.768;2024-02-28T10:45:01;44.8;;;24.3;;
49900;SDS011;35789;48.414;12.768;2024-02-28T10:50:00;44.8;;;24.3;;
49900;SDS011;35789;48.414;12.768;2024-02-28T10:55:02;44.8;;;24.3;;
49900;SDS011;35789;48.414;12.768;2024-02-28T11:00:00;45.6;;;24.9;;
49900;SDS011;35789;48.414;12.768;2024-02-28T11:05:00;45.6;;;24.9;;
49900;SDS011;35789;48.414;12.768;2024-02-28T11:10:05;45.6;;;24.9;;
49900;SDS011;35789;48.414;12.768;2024-02-28T11:15:01;45.6;;;24.9;;
49900;SDS011;35789;48.414;12.768;2024-02-28T11:20:11;45.6;;;24.9;;
49900;SDS011;35789;48.414;12.768;2024-02-28T11:25:00;45.6;;;24.9;;
49900;SDS011;35789;48.414;12.768;2024-02-28T11:30:00;50.0;;;26.7;;
49900;SDS011;35789;48.414;12.768;2024-02-28T11:35:01;50.0;;;26.7;;
49900;SDS011;35789;48.414;12.768;2024-02-28T11:40:00;50.0;;;26.7;;
49900;SDS011;35789;48.414;12.768;2024-02-28T11:45:00;50.0;;;26.7;;
49900;SDS011;35789;48.414;12.768;2024-02-28T11:50:01;50.0;;;26.7;;
49900;SDS011;35789;48.414;12.768;2024-02-28T11:55:00;43.7;;;25.3;;
49900;SDS011;35789;48.414;12.768;2024-02-28T12:00:02;43.7;;;25.3;;
49900;SDS011;35789;48.414;12.768;2024-02-28T12:05:01;43.7;;;25.3;;
49900;SDS011;35789;48.414;12.768;2024-02-28T12:10:00;43.7;;;25.3;;
49900;SDS011;35789;48.414;12.768;2024-02-28T12:15:00;43.7;;;25.3;;
49900;SDS011;35789;48.414;12.768;2024-02-28T12:20:00;43.7;;;25.3;;
49900;SDS011;35789;48.414;12.768;2024-02-28T12:25:00;50.6;;;27.1;;
49900;SDS011;35789;48.414;12.768;2024-02-28T12:30:00;50.6;;;27.1;;
49900;SDS011;35789;48.414;12.768;2024-02-28T12:35:00;50.6;;;27.1;;
49900;SDS011;35789;48.414;12.768;2024-02-28T12:40:00;50.6;;;27.1;;
49900;SDS011;35789;48.414;12.768;2024-02-28T12:45:00;50.6;;;27.1;;
49900;SDS011;35789;48.414;12.768;2024-02-28T12:50:00;50.6;;;27.1;;
49900;SDS011;35789;48.414;12.768;2024-02-28T12:55:00;40.7;;;22.9;;
49900;SDS011;35789;48.414;12.768;2024-02-28T13:00:00;40.7;;;22.9;;
49900;SDS011;35789;48.414;12.768;2024-02-28T13:05:00;40.7;;;22.9;;
49900;SDS011;35789;48.414;12.768;2024-02-28T13:10:00;40.7;;;22.9;;
49900;SDS011;35789;48.414;12.768;2024-02-28T13:15:00;40.7;;;22.9;;
49900;SDS011;35789;48.414;12.768;2024-02-28T13:20:00;40.7;;;22.9;;
49900;SDS011;35789;48.414;12.768;2024-02-28T13:25:00;47.3;;;24.8;;
49900;SDS011;35789;48.414;12.768;2024-02-28T13:30:00;47.3;;;24.8;;
49900;SDS011;35789;48.414;12.768;2024-02-28T13:35:00;47.3;;;24.8;;
49900;SDS011;35789;48.414;12.768;2024-02-28T13:40:00;47.3;;;24.8;;
49900;SDS011;35789;48.414;12.768;2024-02-28T13:45:00;47.3;;;24.8;;
49900;SDS011;35789;48.414;12.768;2024-02-28T13:50:00;47.3;;;24.8;;
49900;SDS011;35789;48.414;12.768;2024-02-28T13:55:00;46.2;;;25.1;;
49900;SDS011;35789;48.414;12.768;2024-02-28T14:00:00;46.2;;;25.1;;
49900;SDS011;35789;48.414;12.768;2024-02-28T14:05:00;46.2;;;25.1;;
49900;SDS011;35789;48.414;12.768;2024-02-28T14:10:00;46.2;;;25.1;;
49900;SDS011;35789;48.414;12.768;2024-02-28T14:15:00;46.2;;;25.1;;
49900;SDS011;35789;48.414;12.768;2024-02-28T14:20:00;46.2;;;25.1;;
49900;SDS011;35789;48.414;12.768;2024-02-28T14:25:00;46.5;;;26.3;;
49900;SDS011;35789;48.414;12.768;2024-02-28T14:30:00;46.5;;;26.3;;
49900;SDS011;35789;48.414;12.768;2024-02-28T14:35:00;46.5;;;26.3;;
49900;SDS011;35789;48.414;12.768;2024-02-28T14:40:00;46.5;;;26.3;;
49900;SDS011;35789;48.414;12.768;2024-02-28T14:45:00;46.5;;;26.3;;
49900;SDS011;35789;48.414;12.768;2024-02-28T14:50:00;46.5;;;26.3;;
49900;SDS011;35789;48.414;12.768;2024-02-28T14:55:00;43.3;;;24.3;;
49900;SDS011;35789;48.414;12.768;2024-02-28T15:00:00;43.3;;;24.3;;
49900;SDS011;35789;48.414;12.768;2024-02-28T15:05:00;43.3;;;24.3;;
49900;SDS011;35789;48.414;12.768;2024-02-28T15:10:00;43.3;;;24.3;;
49900;SDS011;35789;48.414;12.768;2024-02-28T15:15:01;43.3;;;24.3;;
49900;SDS011;35789;48.414;12.768;2024-02-28T15:20:00;43.3;;;24.3;;
49900;SDS011;35789;48.414;12.768;2024-02-28T15:25:00;46.8;;;24.1;;
49900;SDS011;35789;48.414;12.768;2024-02-28T15:30:00;46.8;;;24.1;;
49900;SDS011;35789;48.414;12.768;2024-02-28T15:35:00;46.8;;;24.1;;
49900;SDS011;35789;48.414;12.768;2024-02-28T15:40:00;46.8;;;24.1;;
49900;SDS011;35789;48.414;12.768;2024-02-28T15:45:00;46.8;;;24.1;;
49900;SDS011;35789;48.414;12.768;2024-02-28T15:50:02;46.8;;;24.1;;
49900;SDS011;35789;48.414;12.768;2024-02-28T15:55:00;47.8;;;24.9;;
49900;SDS011;35789;48.414;12.768;2024-02-28T16:00:02;47.8;;;24.9;;
49900;SDS011;35789;48.414;12.768;2024-02-28T16:05:00;47.8;;;24.9;;
49900;SDS011;35789;48.414;12.768;2024-02-28T16:10:00;47.8;;;24.9;;
49900;SDS011;35789;48.414;12.768;2024-02-28T16:15:00;47.8;;;24.9;;
49900;SDS011;35789;48.414;12.768;2024-02-28T16:20:00;47.8;;;24.9;;
49900;SDS011;35789;48.414;12.768;2024-02-28T16:25:00;55.3;;;27.2;;
49900;SDS011;35789;48.414;12.768;2024-02-28T16:30:00;55.3;;;27.2;;
49900;SDS011;35789;48.414;12.768;2024-02-28T16:35:00;55.3;;;27.2;;
49900;SDS011;35789;48.414;12.768;2024-02-28T16:40:00;55.3;;;27.2;;
49900;SDS011;35789;48.414;12.768;2024-02-28T16:45:00;55.3;;;27.2;;
49900;SDS011;35789;48.414;12.768;2024-02-28T16:50:00;55.3;;;27.2;;
49900;SDS011;35789;48.414;12.768;2024-02-28T16:55:00;44.0;;;22.8;;
49900;SDS011;35789;48.414;12.768;2024-02-28T17:00:00;44.0;;;22.8;;
49900;SDS011;35789;48.414;12.768;2024-02-28T17:05:00;44.0;;;22.8;;
49900;SDS011;35789;48.414;12.768;2024-02-28T17:10:00;44.0;;;22.8;;
49900;SDS011;35789;48.414;12.768;2024-02-28T17:15:00;44.0;;;22.8;;
49900;SDS011;35789;48.414;12.768;2024-02-28T17:20:00;44.0;;;22.8;;
49900;SDS011;35789;48.414;12.768;2024-02-28T17:25:00;49.5;;;27.2;;
49900;SDS011;35789;48.414;12.768;2024-02-28T17:30:00;49.5;;;27.2;;
49900;SDS011;35789;48.414;12.768;2024-02-28T17:35:00;49.5;;;27.2;;
49900;SDS011;35789;48.414;12.768;2024-02-28T17:40:00;49.5;;;27.2;;
49900;SDS011;35789;48.414;12.768;2024-02-28T17:45:00;49.5;;;27.2;;
49900;SDS011;35789;48.414;12.768;2024-02-28T17:50:00;49.5;;;27.2;;
49900;SDS011;35789;48.414;12.768;2024-02-28T17:55:00;50.4;;;26.8;;
49900;SDS011;35789;48.414;12.768;2024-02-28T18:00:00;50.4;;;26.8;;
49900;SDS011;35789;48.414;12.768;2024-02-28T18:05:00;50.4;;;26.8;;
49900;SDS011;35789;48.414;12.768;2024-02-28T18:10:00;50.4;;;26.8;;
49900;SDS011;35789;48.414;12.768;2024-02-28T18:15:00;50.4;;;26.8;;
49900;SDS011;35789;48.414;12.768;2024-02-28T18:20:01;50.4;;;26.8;;
49900;SDS011;35789;48.414;12.768;2024-02-28T18:25:00;46.4;;;26.0;;
49900;SDS011;35789;48.414;12.768;2024-02-28T18:30:00;46.4;;;26.0;;
49900;SDS011;35789;48.414;12.768;2024-02-28T18:35:00;46.4;;;26.0;;
49900;SDS011;35789;48.414;12.768;2024-02-28T18:40:00;46.4;;;26.0;;
49900;SDS011;35789;48.414;12.768;2024-02-28T18:45:00;46.4;;;26.0;;
49900;SDS011;35789;48.414;12.768;2024-02-28T18:50:00;46.4;;;26.0;;
49900;SDS011;35789;48.414;12.768;2024-02-28T18:55:00;52.7;;;24.6;;
49900;SDS011;35789;48.414;12.768;2024-02-28T19:00:00;52.7;;;24.6;;
49900;SDS011;35789;48.414;12.768;2024-02-28T19:05:00;52.7;;;24.6;;
49900;SDS011;35789;48.414;12.768;2024-02-28T19:10:00;52.7;;;24.6;;
49900;SDS011;35789;48.414;12.768;2024-02-28T19:15:00;52.7;;;24.6;;
49900;SDS011;35789;48.414;12.768;2024-02-28T19:20:00;52.7;;;24.6;;
49900;SDS011;35789;48.414;12.768;2024-02-28T19:25:00;42.1;;;23.3;;
49900;SDS011;35789;48.414;12.768;2024-02-28T19:30:00;42.1;;;23.3;;
49900;SDS011;35789;48.414;12.768;2024-02-28T19:35:00;42.1;;;23.3;;
49900;SDS011;35789;48.414;12.768;2024-02-28T19:40:00;42.1;;;23.3;;
49900;SDS011;35789;48.414;12.768;2024-02-28T19:45:00;42.1;;;23.3;;
49900;SDS011;35789;48.414;12.768;2024-02-28T19:50:01;42.1;;;23.3;;
49900;SDS011;35789;48.414;12.768;2024-02-28T19:55:00;41.6;;;22.9;;
49900;SDS011;35789;48.414;12.768;2024-02-28T20:00:00;41.6;;;22.9;;
49900;SDS011;35789;48.414;12.768;2024-02-28T20:05:00;41.6;;;22.9;;
49900;SDS011;35789;48.414;12.768;2024-02-28T20:10:00;41.6;;;22.9;;
49900;SDS011;35789;48.414;12.768;2024-02-28T20:15:00;41.6;;;22.9;;
49900;SDS011;35789;48.414;12.768;2024-02-28T20:20:00;41.6;;;22.9;;
49900;SDS011;35789;48.414;12.768;2024-02-28T20:25:00;45.3;;;23.2;;
49900;SDS011;35789;48.414;12.768;2024-02-28T20:30:00;45.3;;;23.2;;
49900;SDS011;35789;48.414;12.768;2024-02-28T20:35:00;45.3;;;23.2;;
49900;SDS011;35789;48.414;12.768;2024-02-28T20:40:00;45.3;;;23.2;;
49900;SDS011;35789;48.414;12.768;2024-02-28T20:45:00;45.3;;;23.2;;
49900;SDS011;35789;48.414;12.768;2024-02-28T20:50:00;45.3;;;23.2;;
49900;SDS011;35789;48.414;12.768;2024-02-28T20:55:00;50.9;;;25.7;;
49900;SDS011;35789;48.414;12.768;2024-02-28T21:00:00;50.9;;;25.7;;
49900;SDS011;35789;48.414;12.768;2024-02-28T21:05:00;50.9;;;25.7;;
49900;SDS011;35789;48.414;12.768;2024-02-28T21:10:00;50.9;;;25.7;;
49900;SDS011;35789;48.414;12.768;2024-02-28T21:15:00;50.9;;;25.7;;
49900;SDS011;35789;48.414;12.768;2024-02-28T21:20:00;50.9;;;25.7;;
49900;SDS011;35789;48.414;12.768;2024-02-28T21:25:00;42.9;;;24.1;;
49900;SDS011;35789;48.414;12.768;2024-02-28T21:30:00;42.9;;;24.1;;
49900;SDS011;35789;48.414;12.768;2024-02-28T21:35:00;42.9;;;24.1;;
49900;SDS011;35789;48.414;12.768;2024-02-28T21:40:00;42.9;;;24.1;;
49900;SDS011;35789;48.414;12.768;2024-02-28T21:45:00;42.9;;;24.1;;
49900;SDS011;35789;48.414;12.768;2024-02-28T21:50:00;42.9;;;24.1;;
49900;SDS011;35789;48.414;12.768;2024-02-28T21:55:02;44.0;;;24.6;;
49900;SDS011;35789;48.414;12.768;2024-02-28T22:00:00;44.0;;;24.6;;
49900;SDS011;35789;48.414;12.768;2024-02-28T22:05:00;44.0;;;24.6;;
49900;SDS011;35789;48.414;12.768;2024-02-28T22:10:00;44.0;;;24.6;;
49900;SDS011;35789;48.414;12.768;2024-02-28T22:15:00;44.0;;;24.6;;
49900;SDS011;35789;48.414;12.768;2024-02-28T22:20:00;44.0;;;24.6;;
49900;SDS011;35789;48.414;12.768;2024-02-28T22:25:00;51.4;;;25.1;;
49900;SDS011;35789;48.414;12.768;2024-02-28T22:30:00;51.4;;;25.1;;
49900;SDS011;35789;48.414;12.768;2024-02-28T22:35:00;51.4;;;25.1;;
49900;SDS011;35789;48.414;12.768;2024-02-28T22:40:00;51.4;;;25.1;;
49900;SDS011;35789;48.414;12.768;2024-02-28T22:45:00;51.4;;;25.1;;
49900;SDS011;35789;48.414;12.768;2024-02-28T22:50:00;51.4;;;25.1;;
49900;SDS011;35789;48.414;12.768;2024-02-28T22:55:00;48.0;;;25.5;;
49900;SDS011;35789;48.414;12.768;2024-02-28T23:00:00;48.0;;;25.5;;
49900;SDS011;35789;48.414;12.768;2024-02-28T23:05:00;48.0;;;25.5;;
49900;SDS011;35789;48.414;12.768;2024-02-28T23:10:00;48.0;;;25.5;;
49900;SDS011;35789;48.414;12.768;2024-02-28T23:15:00;48.0;;;25.5;;
49900;SDS011;35789;48.414;12.768;2024-02-28T23:20:00;48.0;;;25.5;;
49900;SDS011;35789;48.414;12.768;2024-02-28T23:25:00;44.3;;;23.2;;
49900;SDS011;35789;48.414;12.768;2024-02-28T23:30:00;44.3;;;23.2;;
49900;SDS011;35789;48.414;12.768;2024-02-28T23:35:00;44.3;;;23.2;;
49900;SDS011;35789;48.414;12.768;2024-02-28T23:40:00;44.3;;;23.2;;
49900;SDS011;35789;48.414;12.768;2024-02-28T23:45:01;44.3;;;23.2;;
49900;SDS011;35789;48.414;12.768;2024-02-28T23:50:00;44.3;;;23.2;;
49900;SDS011;35789;48.414;12.768;2024-02-28T23:55:00;49.9;;;24.2;;
